CheckWX is a tool to help pilots better visualize weather data.  It is not intended as a substitute for an official pre-flight weather briefing.

06:56:12 UTC

URFF TAF
Simferopol International Airport
Simferopol, Ukraine
TAF URFF 180445Z 1806/1906 06008G13MPS 9999 BKN030CB BECMG 1817/1819 07003MPS

Jun-18@
06:00 UTC

Jun-18 @ 06:00 UTC

Jun-18@
17:00 UTC

Jun-18 @ 17:00 UTC

TAF URFF 180445Z 1806/1906 06008G13MPS 9999 BKN030CB
Wind
  • 060° at 16 KTS
  • {Gusting to 25 KTS
Cloud Levels
  • Broken at 3,000' AGL

Jun-18@
17:00 UTC

Jun-18 @ 17:00 UTC

Jun-19@
06:00 UTC

Jun-19 @ 06:00 UTC

BECMG 1817/1819 07003MPS

Becoming

Becoming Conditions expected by Tue, Jun 18, 2019 @ 19:00 UTC

Wind
  • 070° at 6 KTS
Cloud Levels
  • Broken at 3,000' AGL